createdAt,value
2016-12-17T00:00:23.308Z,0
2016-12-17T00:01:26.760Z,0
2016-12-17T00:02:30.220Z,0
2016-12-17T00:03:33.670Z,0
2016-12-17T00:04:37.122Z,0
2016-12-17T00:05:40.581Z,0
2016-12-17T00:06:44.031Z,0
2016-12-17T00:07:47.484Z,0
2016-12-17T00:08:50.942Z,0
2016-12-17T00:09:54.392Z,0
2016-12-17T00:10:57.838Z,0
2016-12-17T00:12:01.299Z,0
2016-12-17T00:13:04.746Z,0
2016-12-17T00:14:08.201Z,0
2016-12-17T00:15:11.657Z,0
2016-12-17T00:16:15.105Z,0
2016-12-17T00:17:18.551Z,0
2016-12-17T00:18:22.009Z,0
2016-12-17T00:19:25.448Z,0
2016-12-17T00:20:28.892Z,0
2016-12-17T00:21:32.352Z,0
2016-12-17T00:22:35.798Z,0
2016-12-17T00:23:39.257Z,0
2016-12-17T00:24:42.704Z,0
2016-12-17T00:25:46.160Z,0
2016-12-17T00:26:49.618Z,0
2016-12-17T00:27:53.074Z,0
2016-12-17T00:28:56.513Z,0
2016-12-17T00:29:59.967Z,0
2016-12-17T00:31:03.408Z,0
2016-12-17T00:32:06.864Z,0
2016-12-17T00:33:10.314Z,0
2016-12-17T00:34:13.763Z,0
2016-12-17T00:35:17.221Z,0
2016-12-17T00:36:20.681Z,0
2016-12-17T00:37:24.119Z,0
2016-12-17T00:38:27.569Z,0
2016-12-17T00:39:31.012Z,0
2016-12-17T00:40:34.466Z,0
2016-12-17T00:41:37.928Z,0
2016-12-17T00:42:41.366Z,0
2016-12-17T00:43:44.820Z,0
2016-12-17T00:44:48.270Z,0
2016-12-17T00:45:51.722Z,0
2016-12-17T00:46:55.182Z,0
2016-12-17T00:47:58.631Z,0
2016-12-17T00:49:02.084Z,0
2016-12-17T00:50:05.542Z,0
2016-12-17T00:51:08.993Z,0
2016-12-17T00:52:12.438Z,0
2016-12-17T00:53:15.898Z,0
2016-12-17T00:54:19.343Z,0
2016-12-17T00:55:22.801Z,0
2016-12-17T00:56:26.260Z,0
2016-12-17T00:57:29.715Z,0
2016-12-17T00:58:33.162Z,0
2016-12-17T00:59:36.622Z,0
2016-12-17T01:00:40.067Z,0
2016-12-17T01:01:43.524Z,0
2016-12-17T01:02:46.983Z,0
2016-12-17T01:03:50.442Z,0
2016-12-17T01:04:53.892Z,0
2016-12-17T01:05:57.350Z,0
2016-12-17T01:07:00.800Z,0
2016-12-17T01:08:04.254Z,0
2016-12-17T01:09:07.713Z,0
2016-12-17T01:10:11.163Z,0
2016-12-17T01:11:14.615Z,0
2016-12-17T01:12:18.076Z,0
2016-12-17T01:13:21.524Z,0
2016-12-17T01:14:24.971Z,0
2016-12-17T01:15:28.429Z,0
2016-12-17T01:16:31.874Z,0
2016-12-17T01:17:35.331Z,0
2016-12-17T01:18:38.790Z,0
2016-12-17T01:19:42.236Z,0
2016-12-17T01:20:45.693Z,0
2016-12-17T01:21:49.150Z,0
2016-12-17T01:22:52.598Z,0
2016-12-17T01:23:56.056Z,0
2016-12-17T01:24:59.514Z,0
2016-12-17T01:26:02.960Z,0
2016-12-17T01:27:06.415Z,0
2016-12-17T01:28:09.875Z,0
2016-12-17T01:29:13.320Z,0
2016-12-17T01:30:16.777Z,0
2016-12-17T01:31:20.237Z,0
2016-12-17T01:32:23.692Z,0
2016-12-17T01:33:27.139Z,0
2016-12-17T01:34:30.599Z,0
2016-12-17T01:35:34.044Z,0
2016-12-17T01:36:37.500Z,0
2016-12-17T01:37:40.959Z,0
2016-12-17T01:38:44.406Z,0
2016-12-17T01:39:47.862Z,0
2016-12-17T01:40:51.320Z,0
2016-12-17T01:41:54.766Z,0
2016-12-17T01:42:58.222Z,0
2016-12-17T01:44:01.682Z,0
2016-12-17T01:45:05.127Z,0
2016-12-17T01:46:08.584Z,0
2016-12-17T01:47:12.042Z,0
2016-12-17T01:48:15.487Z,0
2016-12-17T01:49:18.945Z,0
2016-12-17T01:50:22.405Z,0
2016-12-17T01:51:25.849Z,0
2016-12-17T01:52:29.307Z,0
2016-12-17T01:53:32.766Z,0
2016-12-17T01:54:36.213Z,0
2016-12-17T01:55:39.670Z,0
2016-12-17T01:56:43.127Z,0
2016-12-17T01:57:46.576Z,0
2016-12-17T01:58:50.029Z,0
2016-12-17T01:59:53.489Z,0
2016-12-17T02:00:56.935Z,0
2016-12-17T02:02:00.393Z,0
2016-12-17T02:03:03.851Z,0
2016-12-17T02:04:07.297Z,0
2016-12-17T02:05:10.745Z,0
2016-12-17T02:06:14.200Z,0
2016-12-17T02:07:17.640Z,0
2016-12-17T02:08:21.097Z,0
2016-12-17T02:09:24.544Z,0
2016-12-17T02:10:27.995Z,0
2016-12-17T02:11:31.454Z,0
2016-12-17T02:12:34.905Z,0
2016-12-17T02:13:38.357Z,0
2016-12-17T02:14:41.816Z,0
2016-12-17T02:15:45.266Z,0
2016-12-17T02:16:48.711Z,0
2016-12-17T02:17:52.163Z,0
2016-12-17T02:18:55.604Z,0
2016-12-17T02:19:59.055Z,0
2016-12-17T02:21:02.501Z,0
2016-12-17T02:22:05.954Z,0
2016-12-17T02:23:09.413Z,0
2016-12-17T02:24:12.863Z,0
2016-12-17T02:25:16.310Z,0
2016-12-17T02:26:19.768Z,0
2016-12-17T02:27:23.224Z,0
2016-12-17T02:28:26.672Z,0
2016-12-17T02:29:30.127Z,0
2016-12-17T02:30:33.567Z,0
2016-12-17T02:31:37.021Z,0
2016-12-17T02:32:40.478Z,0
2016-12-17T02:33:43.918Z,0
2016-12-17T02:34:47.371Z,0
2016-12-17T02:35:50.822Z,0
2016-12-17T02:36:54.271Z,0
2016-12-17T02:37:57.730Z,0
2016-12-17T02:39:01.182Z,0
2016-12-17T02:40:04.628Z,0
2016-12-17T02:41:08.077Z,0
2016-12-17T02:42:11.519Z,0
2016-12-17T02:43:14.973Z,0
2016-12-17T02:44:18.424Z,0
2016-12-17T02:45:21.870Z,0
2016-12-17T02:46:25.329Z,0
2016-12-17T02:47:28.780Z,0
2016-12-17T02:48:32.227Z,0
2016-12-17T02:49:35.686Z,0
2016-12-17T02:50:39.130Z,0
2016-12-17T02:51:42.587Z,0
2016-12-17T02:52:46.046Z,0
2016-12-17T02:53:49.494Z,0
2016-12-17T02:54:52.948Z,0
2016-12-17T02:55:56.408Z,0
2016-12-17T02:56:59.856Z,0
2016-12-17T02:58:03.311Z,0
2016-12-17T02:59:06.769Z,0
2016-12-17T03:00:10.215Z,0
2016-12-17T03:01:13.678Z,0
2016-12-17T03:02:17.130Z,0
2016-12-17T03:03:20.577Z,0
2016-12-17T03:04:24.024Z,0
2016-12-17T03:05:27.480Z,0
2016-12-17T03:06:30.919Z,0
2016-12-17T03:07:34.373Z,0
2016-12-17T03:08:37.823Z,0
2016-12-17T03:09:41.269Z,0
2016-12-17T03:10:44.728Z,0
2016-12-17T03:11:48.183Z,0
2016-12-17T03:12:51.631Z,0
2016-12-17T03:13:55.090Z,0
2016-12-17T03:14:58.536Z,0
2016-12-17T03:16:01.991Z,0
2016-12-17T03:17:05.451Z,0
2016-12-17T03:18:08.908Z,0
2016-12-17T03:19:12.353Z,0
2016-12-17T03:20:15.812Z,0
2016-12-17T03:21:19.259Z,0
2016-12-17T03:22:22.716Z,0
2016-12-17T03:23:26.174Z,0
2016-12-17T03:24:29.623Z,0
2016-12-17T03:25:33.077Z,0
2016-12-17T03:26:36.536Z,0
2016-12-17T03:27:39.984Z,0
2016-12-17T03:28:43.438Z,0
2016-12-17T03:29:46.896Z,0
2016-12-17T03:30:50.343Z,0
2016-12-17T03:31:53.800Z,0
2016-12-17T03:32:57.259Z,0
2016-12-17T03:34:00.707Z,0
2016-12-17T03:35:04.162Z,0
2016-12-17T03:36:07.622Z,0
2016-12-17T03:37:11.067Z,0
2016-12-17T03:38:14.524Z,0
2016-12-17T03:39:17.983Z,0
2016-12-17T03:40:21.429Z,0
2016-12-17T03:41:24.887Z,0
2016-12-17T03:42:28.344Z,0
2016-12-17T03:43:31.792Z,0
2016-12-17T03:44:35.246Z,0
2016-12-17T03:45:38.705Z,0
2016-12-17T03:46:42.154Z,0
2016-12-17T03:47:45.610Z,0
2016-12-17T03:48:49.064Z,0
2016-12-17T03:49:52.518Z,0
2016-12-17T03:50:55.971Z,0
2016-12-17T03:51:59.431Z,0
2016-12-17T03:53:02.877Z,0
2016-12-17T03:54:06.332Z,0
2016-12-17T03:55:09.793Z,0
2016-12-17T03:56:13.239Z,0
2016-12-17T03:57:16.685Z,0
2016-12-17T03:58:20.141Z,0
2016-12-17T03:59:23.582Z,0
2016-12-17T04:00:27.038Z,0
2016-12-17T04:01:30.484Z,0
2016-12-17T04:02:33.936Z,0
2016-12-17T04:03:37.396Z,0
2016-12-17T04:04:40.847Z,0
2016-12-17T04:05:44.298Z,0
2016-12-17T04:06:47.757Z,0
2016-12-17T04:07:51.208Z,0
2016-12-17T04:08:54.654Z,0
2016-12-17T04:09:58.113Z,0
2016-12-17T04:11:01.560Z,0
2016-12-17T04:12:05.014Z,0
2016-12-17T04:13:08.474Z,0
2016-12-17T04:14:11.922Z,0
2016-12-17T04:15:15.376Z,0
2016-12-17T04:16:18.836Z,0
2016-12-17T04:17:22.280Z,0
2016-12-17T04:18:25.740Z,0
2016-12-17T04:19:29.199Z,0
2016-12-17T04:20:32.645Z,0
2016-12-17T04:21:36.101Z,0
2016-12-17T04:22:39.559Z,0
2016-12-17T04:23:43.004Z,0
2016-12-17T04:24:46.464Z,0
2016-12-17T04:25:49.921Z,0
2016-12-17T04:26:53.377Z,0
2016-12-17T04:27:56.824Z,0
2016-12-17T04:29:00.284Z,0
2016-12-17T04:30:03.728Z,0
2016-12-17T04:31:07.187Z,0
2016-12-17T04:32:10.642Z,0
2016-12-17T04:33:14.092Z,0
2016-12-17T04:34:17.547Z,0
2016-12-17T04:35:21.007Z,0
2016-12-17T04:36:24.453Z,0
2016-12-17T04:37:27.910Z,0
2016-12-17T04:38:31.365Z,0
2016-12-17T04:39:34.815Z,0
2016-12-17T04:40:38.270Z,0
2016-12-17T04:41:41.731Z,0
2016-12-17T04:42:45.177Z,0
2016-12-17T04:43:48.634Z,0
2016-12-17T04:44:52.092Z,0
2016-12-17T04:45:55.539Z,0
2016-12-17T04:46:58.995Z,0
2016-12-17T04:48:02.454Z,0
2016-12-17T04:49:05.902Z,0
2016-12-17T04:50:09.358Z,0
2016-12-17T04:51:12.816Z,0
2016-12-17T04:52:16.263Z,0
2016-12-17T04:53:19.719Z,0
2016-12-17T04:54:23.176Z,0
2016-12-17T04:55:26.623Z,0
2016-12-17T04:56:30.080Z,0
2016-12-17T04:57:33.539Z,0
2016-12-17T04:58:36.987Z,0
2016-12-17T04:59:40.442Z,0
2016-12-17T05:00:43.901Z,0
2016-12-17T05:01:47.346Z,0
2016-12-17T05:02:50.803Z,0
2016-12-17T05:03:54.265Z,0
2016-12-17T05:04:57.707Z,0
2016-12-17T05:06:01.166Z,0
2016-12-17T05:07:04.623Z,0
2016-12-17T05:08:08.071Z,0
2016-12-17T05:09:11.527Z,0
2016-12-17T05:10:14.987Z,0
2016-12-17T05:11:18.432Z,0
2016-12-17T05:12:21.889Z,0
2016-12-17T05:13:25.346Z,0
2016-12-17T05:14:28.794Z,0
2016-12-17T05:15:32.250Z,0
2016-12-17T05:16:35.709Z,0
2016-12-17T05:17:39.158Z,0
2016-12-17T05:18:42.613Z,0
2016-12-17T05:19:46.071Z,0
2016-12-17T05:20:49.519Z,0
2016-12-17T05:21:52.964Z,0
2016-12-17T05:22:56.421Z,0
2016-12-17T05:23:59.860Z,0
2016-12-17T05:25:03.318Z,0
2016-12-17T05:26:06.764Z,0
2016-12-17T05:27:10.216Z,0
2016-12-17T05:28:13.675Z,0
2016-12-17T05:29:17.124Z,0
2016-12-17T05:30:20.562Z,0
2016-12-17T05:31:24.018Z,0
2016-12-17T05:32:27.458Z,0
2016-12-17T05:33:30.916Z,0
2016-12-17T05:34:34.361Z,0
2016-12-17T05:35:37.813Z,0
2016-12-17T05:36:41.273Z,0
2016-12-17T05:37:44.723Z,0
2016-12-17T05:38:48.167Z,0
2016-12-17T05:39:51.627Z,0
2016-12-17T05:40:55.074Z,0
2016-12-17T05:41:58.530Z,0
2016-12-17T05:43:01.988Z,0
2016-12-17T05:44:05.435Z,0
2016-12-17T05:45:08.883Z,0
2016-12-17T05:46:12.338Z,0
2016-12-17T05:47:15.779Z,0
2016-12-17T05:48:19.235Z,0
2016-12-17T05:49:22.681Z,0
2016-12-17T05:50:26.127Z,0
2016-12-17T05:51:29.573Z,0
2016-12-17T05:52:33.026Z,0
2016-12-17T05:53:36.479Z,0
2016-12-17T05:54:39.936Z,0
2016-12-17T05:55:43.376Z,0
2016-12-17T05:56:46.833Z,0
2016-12-17T05:57:50.280Z,0
2016-12-17T05:58:53.730Z,0
2016-12-17T05:59:57.189Z,0
2016-12-17T06:01:00.640Z,0
2016-12-17T06:02:04.093Z,0
2016-12-17T06:03:07.553Z,0
2016-12-17T06:04:11.002Z,0
2016-12-17T06:05:14.454Z,0
2016-12-17T06:06:17.914Z,0
2016-12-17T06:07:21.373Z,0
2016-12-17T06:08:24.810Z,0
2016-12-17T06:09:28.269Z,0
2016-12-17T06:10:31.717Z,0
2016-12-17T06:11:35.172Z,0
2016-12-17T06:12:38.630Z,0
2016-12-17T06:13:42.087Z,0
2016-12-17T06:14:45.533Z,0
2016-12-17T06:15:48.993Z,0
2016-12-17T06:16:52.440Z,0
2016-12-17T06:17:55.887Z,0
2016-12-17T06:18:59.341Z,0
2016-12-17T06:20:02.786Z,0
2016-12-17T06:21:06.239Z,0
2016-12-17T06:22:09.685Z,0
2016-12-17T06:23:13.137Z,0
2016-12-17T06:24:16.596Z,0
2016-12-17T06:25:20.047Z,0
2016-12-17T06:26:23.492Z,0
2016-12-17T06:27:26.952Z,0
2016-12-17T06:28:30.400Z,0
2016-12-17T06:29:33.855Z,0
2016-12-17T06:30:37.313Z,0
2016-12-17T06:31:40.760Z,0
2016-12-17T06:32:44.216Z,0
2016-12-17T06:33:47.675Z,0
2016-12-17T06:34:51.122Z,0
2016-12-17T06:35:54.578Z,0
2016-12-17T06:36:58.036Z,0
2016-12-17T06:38:01.483Z,0
2016-12-17T06:39:04.930Z,0
2016-12-17T06:40:08.383Z,0
2016-12-17T06:41:11.823Z,0
2016-12-17T06:42:15.279Z,0
2016-12-17T06:43:18.729Z,0
2016-12-17T06:44:22.182Z,0
2016-12-17T06:45:25.640Z,0
2016-12-17T06:46:29.090Z,0
2016-12-17T06:47:32.532Z,0
2016-12-17T06:48:36.004Z,0
2016-12-17T06:49:39.452Z,0
2016-12-17T06:50:42.899Z,0
2016-12-17T06:51:46.357Z,0
2016-12-17T06:52:49.804Z,0
2016-12-17T06:53:53.260Z,0
2016-12-17T06:54:56.718Z,0
2016-12-17T06:56:00.167Z,0
2016-12-17T06:57:03.621Z,0
2016-12-17T06:58:07.081Z,0
2016-12-17T06:59:10.528Z,0
2016-12-17T07:00:13.984Z,0
2016-12-17T07:01:17.443Z,0
2016-12-17T07:02:20.887Z,0
2016-12-17T07:03:24.336Z,0
2016-12-17T07:04:27.792Z,0
2016-12-17T07:05:31.231Z,0
2016-12-17T07:06:34.685Z,0
2016-12-17T07:07:38.135Z,0
2016-12-17T07:08:41.589Z,0
2016-12-17T07:09:45.047Z,0
2016-12-17T07:10:48.496Z,0
2016-12-17T07:11:51.942Z,0
2016-12-17T07:12:55.404Z,0
2016-12-17T07:13:58.857Z,0
2016-12-17T07:15:02.303Z,0
2016-12-17T07:16:05.755Z,0
2016-12-17T07:17:09.193Z,0
2016-12-17T07:18:12.648Z,0
2016-12-17T07:19:16.098Z,0
2016-12-17T07:20:19.545Z,0
2016-12-17T07:21:23.005Z,0
2016-12-17T07:22:26.455Z,0
2016-12-17T07:23:29.902Z,0
2016-12-17T07:24:33.361Z,0
2016-12-17T07:25:36.808Z,0
2016-12-17T07:26:40.264Z,0
2016-12-17T07:27:43.724Z,0
2016-12-17T07:28:47.169Z,4
2016-12-17T07:29:50.624Z,4
2016-12-17T07:30:54.085Z,4
2016-12-17T07:31:57.530Z,4
2016-12-17T07:33:00.976Z,4
2016-12-17T07:34:04.431Z,4
2016-12-17T07:35:07.870Z,0
2016-12-17T07:36:11.326Z,4
2016-12-17T07:37:14.776Z,4
2016-12-17T07:38:18.221Z,4
2016-12-17T07:39:21.682Z,4
2016-12-17T07:40:25.136Z,4
2016-12-17T07:41:28.576Z,4
2016-12-17T07:42:32.030Z,4
2016-12-17T07:43:35.471Z,4
2016-12-17T07:44:38.929Z,4
2016-12-17T07:45:42.375Z,4
2016-12-17T07:46:45.826Z,4
2016-12-17T07:47:49.284Z,4
2016-12-17T07:48:52.735Z,8
2016-12-17T07:49:56.188Z,8
2016-12-17T07:50:59.648Z,8
2016-12-17T07:52:03.097Z,8
2016-12-17T07:53:06.550Z,8
2016-12-17T07:54:10.009Z,4
2016-12-17T07:55:13.458Z,4
2016-12-17T07:56:16.905Z,8
2016-12-17T07:57:20.363Z,8
2016-12-17T07:58:23.811Z,8
2016-12-17T07:59:27.267Z,12
2016-12-17T08:00:30.725Z,8
2016-12-17T08:01:34.181Z,12
2016-12-17T08:02:37.628Z,8
2016-12-17T08:03:41.087Z,8
2016-12-17T08:04:44.534Z,12
2016-12-17T08:05:47.989Z,12
2016-12-17T08:06:51.448Z,12
2016-12-17T08:07:54.894Z,12
2016-12-17T08:08:58.351Z,12
2016-12-17T08:10:01.810Z,12
2016-12-17T08:11:05.257Z,16
2016-12-17T08:12:08.704Z,12
2016-12-17T08:13:12.159Z,12
2016-12-17T08:14:15.595Z,12
2016-12-17T08:15:19.052Z,12
2016-12-17T08:16:22.512Z,12
2016-12-17T08:17:25.948Z,12
2016-12-17T08:18:29.408Z,12
2016-12-17T08:19:32.860Z,12
2016-12-17T08:20:36.311Z,12
2016-12-17T08:21:39.770Z,12
2016-12-17T08:22:43.224Z,12
2016-12-17T08:23:46.671Z,12
2016-12-17T08:24:50.131Z,12
2016-12-17T08:25:53.578Z,16
2016-12-17T08:26:57.033Z,12
2016-12-17T08:28:00.495Z,12
2016-12-17T08:29:03.939Z,12
2016-12-17T08:30:07.394Z,12
2016-12-17T08:31:10.853Z,12
2016-12-17T08:32:14.299Z,12
2016-12-17T08:33:17.757Z,16
2016-12-17T08:34:21.216Z,12
2016-12-17T08:35:24.662Z,16
2016-12-17T08:36:28.119Z,16
2016-12-17T08:37:31.576Z,16
2016-12-17T08:38:35.023Z,20
2016-12-17T08:39:38.480Z,24
2016-12-17T08:40:41.939Z,24
2016-12-17T08:41:45.387Z,24
2016-12-17T08:42:48.842Z,28
2016-12-17T08:43:52.302Z,28
2016-12-17T08:44:55.757Z,32
2016-12-17T08:45:59.202Z,28
2016-12-17T08:47:02.652Z,32
2016-12-17T08:48:06.092Z,32
2016-12-17T08:49:09.548Z,32
2016-12-17T08:50:12.994Z,36
2016-12-17T08:51:16.445Z,32
2016-12-17T08:52:19.905Z,36
2016-12-17T08:53:23.355Z,36
2016-12-17T08:54:26.807Z,36
2016-12-17T08:55:30.266Z,36
2016-12-17T08:56:33.717Z,36
2016-12-17T08:57:37.163Z,40
2016-12-17T08:58:40.621Z,40
2016-12-17T08:59:44.065Z,40
2016-12-17T09:00:47.515Z,40
2016-12-17T09:01:50.969Z,44
2016-12-17T09:02:54.411Z,40
2016-12-17T09:03:57.867Z,44
2016-12-17T09:05:01.314Z,44
2016-12-17T09:06:04.766Z,44
2016-12-17T09:07:08.223Z,48
2016-12-17T09:08:11.674Z,48
2016-12-17T09:09:15.121Z,52
2016-12-17T09:10:18.580Z,48
2016-12-17T09:11:22.023Z,52
2016-12-17T09:12:25.482Z,52
2016-12-17T09:13:28.942Z,56
2016-12-17T09:14:32.389Z,56
2016-12-17T09:15:35.835Z,56
2016-12-17T09:16:39.280Z,56
2016-12-17T09:17:42.727Z,56
2016-12-17T09:18:46.183Z,60
2016-12-17T09:19:49.633Z,56
2016-12-17T09:20:53.085Z,60
2016-12-17T09:21:56.544Z,60
2016-12-17T09:22:59.995Z,60
2016-12-17T09:24:03.452Z,64
2016-12-17T09:25:06.907Z,60
2016-12-17T09:26:10.356Z,64
2016-12-17T09:27:13.810Z,64
2016-12-17T09:28:17.269Z,64
2016-12-17T09:29:20.718Z,64
2016-12-17T09:30:24.170Z,68
2016-12-17T09:31:27.630Z,68
2016-12-17T09:32:31.080Z,72
2016-12-17T09:33:34.533Z,72
2016-12-17T09:34:37.992Z,76
2016-12-17T09:35:41.441Z,84
2016-12-17T09:36:44.887Z,80
2016-12-17T09:37:48.346Z,84
2016-12-17T09:38:51.792Z,80
2016-12-17T09:39:55.249Z,80
2016-12-17T09:40:58.707Z,88
2016-12-17T09:42:02.164Z,72
2016-12-17T09:43:05.612Z,68
2016-12-17T09:44:09.070Z,68
2016-12-17T09:45:12.517Z,60
2016-12-17T09:46:15.964Z,60
2016-12-17T09:47:19.418Z,56
2016-12-17T09:48:22.858Z,48
2016-12-17T09:49:26.317Z,48
2016-12-17T09:50:29.763Z,44
2016-12-17T09:51:33.213Z,44
2016-12-17T09:52:36.674Z,48
2016-12-17T09:53:40.124Z,48
2016-12-17T09:54:43.576Z,52
2016-12-17T09:55:47.035Z,56
2016-12-17T09:56:50.485Z,56
2016-12-17T09:57:53.933Z,60
2016-12-17T09:58:57.392Z,64
2016-12-17T10:00:00.847Z,64
2016-12-17T10:01:04.292Z,68
2016-12-17T10:02:07.753Z,68
2016-12-17T10:03:11.198Z,68
2016-12-17T10:04:14.655Z,72
2016-12-17T10:05:18.113Z,72
2016-12-17T10:06:21.559Z,72
2016-12-17T10:07:25.019Z,76
2016-12-17T10:08:28.465Z,80
2016-12-17T10:11:00.175Z,84
2016-12-17T10:12:03.629Z,92
2016-12-17T10:13:07.083Z,100
2016-12-17T10:14:10.528Z,108
2016-12-17T10:15:13.986Z,132
2016-12-17T10:16:17.438Z,136
2016-12-17T10:17:20.883Z,140
2016-12-17T10:18:24.342Z,140
2016-12-17T10:19:27.786Z,140
2016-12-17T10:20:31.229Z,144
2016-12-17T10:21:34.690Z,144
2016-12-17T10:22:38.131Z,144
2016-12-17T10:23:41.584Z,144
2016-12-17T10:24:45.033Z,144
2016-12-17T10:25:48.480Z,144
2016-12-17T10:26:51.938Z,140
2016-12-17T10:27:55.386Z,144
2016-12-17T10:28:58.842Z,144
2016-12-17T10:30:02.300Z,148
2016-12-17T10:31:05.746Z,148
2016-12-17T10:32:09.202Z,148
2016-12-17T10:33:12.660Z,148
2016-12-17T10:34:16.106Z,148
2016-12-17T10:35:19.565Z,148
2016-12-17T10:36:23.024Z,148
2016-12-17T10:37:26.480Z,148
2016-12-17T10:38:29.927Z,148
2016-12-17T10:39:33.386Z,148
2016-12-17T10:40:36.831Z,148
2016-12-17T10:41:40.287Z,148
2016-12-17T10:42:43.745Z,152
2016-12-17T10:43:47.192Z,152
2016-12-17T10:44:50.651Z,156
2016-12-17T10:45:54.100Z,152
2016-12-17T10:46:57.544Z,152
2016-12-17T10:48:00.997Z,152
2016-12-17T10:49:04.458Z,152
2016-12-17T10:50:07.903Z,152
2016-12-17T10:51:11.350Z,156
2016-12-17T10:52:14.801Z,152
2016-12-17T10:53:18.247Z,156
2016-12-17T10:54:21.704Z,152
2016-12-17T10:55:25.151Z,152
2016-12-17T10:56:28.609Z,152
2016-12-17T10:57:32.067Z,148
2016-12-17T10:58:35.513Z,148
2016-12-17T10:59:38.971Z,144
2016-12-17T11:00:42.427Z,140
2016-12-17T11:01:45.874Z,140
2016-12-17T11:02:49.332Z,140
2016-12-17T11:03:52.783Z,140
2016-12-17T11:04:56.222Z,144
2016-12-17T11:05:59.675Z,144
2016-12-17T11:07:03.122Z,144
2016-12-17T11:08:06.574Z,144
2016-12-17T11:09:10.034Z,144
2016-12-17T11:10:13.482Z,140
2016-12-17T11:11:16.929Z,144
2016-12-17T11:12:20.389Z,144
2016-12-17T11:13:23.833Z,140
2016-12-17T11:14:27.290Z,140
2016-12-17T11:15:30.750Z,140
2016-12-17T11:16:34.193Z,140
2016-12-17T11:17:37.643Z,132
2016-12-17T11:18:41.089Z,128
2016-12-17T11:19:44.534Z,120
2016-12-17T11:20:47.991Z,116
2016-12-17T11:21:51.441Z,112
2016-12-17T11:22:54.888Z,108
2016-12-17T11:23:58.375Z,104
2016-12-17T11:25:01.803Z,104
2016-12-17T11:26:05.250Z,96
2016-12-17T11:27:08.708Z,96
2016-12-17T11:28:12.155Z,92
2016-12-17T11:29:15.610Z,84
2016-12-17T11:30:19.070Z,84
2016-12-17T11:31:22.517Z,80
2016-12-17T11:32:25.972Z,76
2016-12-17T11:33:29.432Z,76
2016-12-17T11:34:32.878Z,72
2016-12-17T11:35:36.333Z,72
2016-12-17T11:36:39.793Z,68
2016-12-17T11:37:43.239Z,64
2016-12-17T11:38:46.696Z,64
2016-12-17T11:39:50.155Z,60
2016-12-17T11:40:53.606Z,56
2016-12-17T11:41:57.057Z,52
2016-12-17T11:43:00.519Z,52
2016-12-17T11:44:03.963Z,48
2016-12-17T11:45:07.409Z,44
2016-12-17T11:46:10.866Z,44
2016-12-17T11:47:14.306Z,44
2016-12-17T11:48:17.759Z,40
2016-12-17T11:49:21.208Z,40
2016-12-17T11:50:24.655Z,44
2016-12-17T11:51:28.104Z,40
2016-12-17T11:52:31.553Z,40
2016-12-17T11:53:35.004Z,40
2016-12-17T11:54:38.463Z,40
2016-12-17T11:55:41.904Z,40
2016-12-17T11:56:45.360Z,44
2016-12-17T11:57:48.806Z,44
2016-12-17T11:58:52.258Z,44
2016-12-17T11:59:55.720Z,44
2016-12-17T12:00:59.167Z,44
2016-12-17T12:02:02.614Z,40
2016-12-17T12:03:06.072Z,40
2016-12-17T12:04:09.519Z,36
2016-12-17T12:05:12.975Z,36
2016-12-17T12:06:16.435Z,36
2016-12-17T12:07:19.883Z,36
2016-12-17T12:08:23.337Z,32
2016-12-17T12:09:26.796Z,32
2016-12-17T12:10:30.242Z,32
2016-12-17T12:11:33.699Z,32
2016-12-17T12:12:37.156Z,32
2016-12-17T12:13:40.603Z,32
2016-12-17T12:14:44.060Z,32
2016-12-17T12:15:47.520Z,32
2016-12-17T12:16:50.963Z,32
2016-12-17T12:17:54.422Z,32
2016-12-17T12:18:57.881Z,36
2016-12-17T12:20:01.328Z,40
2016-12-17T12:21:04.784Z,36
2016-12-17T12:22:08.243Z,36
2016-12-17T12:23:11.698Z,40
2016-12-17T12:24:15.145Z,40
2016-12-17T12:25:18.604Z,40
2016-12-17T12:26:22.060Z,40
2016-12-17T12:27:25.506Z,36
2016-12-17T12:28:28.966Z,40
2016-12-17T12:29:32.411Z,36
2016-12-17T12:30:35.869Z,36
2016-12-17T12:31:39.329Z,36
2016-12-17T12:32:42.775Z,36
2016-12-17T12:33:46.230Z,36
2016-12-17T12:34:49.688Z,32
2016-12-17T12:35:53.134Z,36
2016-12-17T12:36:56.591Z,36
2016-12-17T12:38:00.050Z,32
2016-12-17T12:39:03.496Z,32
2016-12-17T12:40:06.955Z,36
2016-12-17T12:41:10.411Z,32
2016-12-17T12:42:13.868Z,32
2016-12-17T12:43:17.315Z,36
2016-12-17T12:44:20.773Z,32
2016-12-17T12:45:24.228Z,36
2016-12-17T12:46:27.677Z,36
2016-12-17T12:47:31.135Z,36
2016-12-17T12:48:34.582Z,36
2016-12-17T12:49:38.038Z,36
2016-12-17T12:50:41.492Z,36
2016-12-17T12:51:44.941Z,36
2016-12-17T12:52:48.399Z,36
2016-12-17T12:53:51.858Z,32
2016-12-17T12:54:55.305Z,36
2016-12-17T12:55:58.760Z,32
2016-12-17T12:57:02.219Z,32
2016-12-17T12:58:05.666Z,32
2016-12-17T12:59:09.125Z,32
2016-12-17T13:00:12.582Z,32
2016-12-17T13:01:16.037Z,32
2016-12-17T13:02:19.475Z,32
2016-12-17T13:03:22.931Z,32
2016-12-17T13:04:26.376Z,28
2016-12-17T13:05:29.830Z,28
2016-12-17T13:06:33.274Z,24
2016-12-17T13:07:36.726Z,28
2016-12-17T13:08:40.184Z,24
2016-12-17T13:09:43.635Z,24
2016-12-17T13:10:47.088Z,24
2016-12-17T13:11:50.545Z,24
2016-12-17T13:12:53.996Z,24
2016-12-17T13:13:57.451Z,24
2016-12-17T13:15:00.909Z,28
2016-12-17T13:16:04.359Z,28
2016-12-17T13:17:07.803Z,32
2016-12-17T13:18:11.264Z,28
2016-12-17T13:19:14.719Z,28
2016-12-17T13:20:18.166Z,28
2016-12-17T13:21:21.624Z,28
2016-12-17T13:22:25.071Z,28
2016-12-17T13:23:28.528Z,28
2016-12-17T13:24:31.987Z,28
2016-12-17T13:25:35.434Z,32
2016-12-17T13:26:38.890Z,32
2016-12-17T13:27:42.348Z,28
2016-12-17T13:28:45.804Z,32
2016-12-17T13:29:49.242Z,28
2016-12-17T13:30:52.698Z,28
2016-12-17T13:31:56.138Z,28
2016-12-17T13:32:59.594Z,24
2016-12-17T13:34:03.041Z,24
2016-12-17T13:35:06.493Z,24
2016-12-17T13:36:09.951Z,28
2016-12-17T13:37:13.402Z,24
2016-12-17T13:38:16.848Z,24
2016-12-17T13:39:20.306Z,24
2016-12-17T13:40:23.752Z,24
2016-12-17T13:41:27.209Z,24
2016-12-17T13:42:30.668Z,24
2016-12-17T13:43:34.124Z,20
2016-12-17T13:44:37.572Z,24
2016-12-17T13:45:41.021Z,20
2016-12-17T13:46:44.472Z,20
2016-12-17T13:47:47.932Z,16
2016-12-17T13:48:51.392Z,16
2016-12-17T13:49:54.850Z,12
2016-12-17T13:50:58.300Z,12
2016-12-17T13:52:01.761Z,12
2016-12-17T13:53:05.210Z,12
2016-12-17T13:54:08.662Z,12
2016-12-17T13:55:12.121Z,12
2016-12-17T13:56:15.572Z,12
2016-12-17T13:57:19.024Z,16
2016-12-17T13:58:22.484Z,16
2016-12-17T13:59:25.934Z,16
2016-12-17T14:00:29.384Z,16
2016-12-17T14:01:32.847Z,16
2016-12-17T14:02:36.296Z,16
2016-12-17T14:03:39.748Z,12
2016-12-17T14:04:43.206Z,12
2016-12-17T14:05:46.657Z,16
2016-12-17T14:06:50.111Z,16
2016-12-17T14:07:53.569Z,16
2016-12-17T14:08:57.018Z,16
2016-12-17T14:10:00.471Z,16
2016-12-17T14:11:03.930Z,16
2016-12-17T14:12:07.382Z,16
2016-12-17T14:13:10.826Z,16
2016-12-17T14:14:14.283Z,16
2016-12-17T14:15:17.741Z,16
2016-12-17T14:16:21.188Z,16
2016-12-17T14:17:24.647Z,12
2016-12-17T14:18:28.102Z,16
2016-12-17T14:19:31.550Z,12
2016-12-17T14:20:35.009Z,12
2016-12-17T14:21:38.457Z,8
2016-12-17T14:22:41.912Z,8
2016-12-17T14:23:45.371Z,12
2016-12-17T14:24:48.826Z,12
2016-12-17T14:25:52.274Z,12
2016-12-17T14:26:55.733Z,8
2016-12-17T14:27:59.180Z,8
2016-12-17T14:29:02.635Z,8
2016-12-17T14:30:06.095Z,12
2016-12-17T14:31:09.540Z,12
2016-12-17T14:32:12.997Z,16
2016-12-17T14:33:16.457Z,12
2016-12-17T14:34:19.903Z,12
2016-12-17T14:35:23.359Z,16
2016-12-17T14:36:26.818Z,12
2016-12-17T14:37:30.266Z,12
2016-12-17T14:38:33.721Z,12
2016-12-17T14:39:37.180Z,12
2016-12-17T14:40:40.635Z,12
2016-12-17T14:41:44.081Z,8
2016-12-17T14:42:47.543Z,8
2016-12-17T14:43:50.999Z,12
2016-12-17T14:44:54.444Z,12
2016-12-17T14:45:57.903Z,8
2016-12-17T14:47:01.359Z,8
2016-12-17T14:48:04.805Z,8
2016-12-17T14:49:08.265Z,8
2016-12-17T14:50:11.714Z,8
2016-12-17T14:51:15.168Z,8
2016-12-17T14:52:18.616Z,4
2016-12-17T14:53:22.066Z,4
2016-12-17T14:54:25.518Z,8
2016-12-17T14:55:28.978Z,8
2016-12-17T14:56:32.416Z,8
2016-12-17T14:57:35.872Z,4
2016-12-17T14:58:39.320Z,4
2016-12-17T14:59:42.772Z,4
2016-12-17T15:00:46.232Z,4
2016-12-17T15:01:49.681Z,4
2016-12-17T15:02:53.133Z,4
2016-12-17T15:03:56.593Z,4
2016-12-17T15:05:00.043Z,4
2016-12-17T15:06:03.495Z,4
2016-12-17T15:08:36.910Z,4
2016-12-17T15:09:40.358Z,4
2016-12-17T15:10:43.799Z,0
2016-12-17T15:11:47.246Z,4
2016-12-17T15:12:50.702Z,4
2016-12-17T15:13:54.151Z,4
2016-12-17T15:14:57.608Z,4
2016-12-17T15:16:01.067Z,4
2016-12-17T15:17:04.512Z,4
2016-12-17T15:18:07.970Z,0
2016-12-17T15:19:11.430Z,0
2016-12-17T15:20:14.874Z,0
2016-12-17T15:21:18.318Z,0
2016-12-17T15:22:21.776Z,0
2016-12-17T15:23:25.212Z,0